createdAt,value
2024-05-09T00:01:37.146Z,51.05
2024-05-09T00:04:09.206Z,50.95
2024-05-09T00:06:39.739Z,51.03
2024-05-09T00:09:11.460Z,51.02
2024-05-09T00:11:41.978Z,51.13
2024-05-09T00:14:13.829Z,51.35
2024-05-09T00:16:44.407Z,51.37
2024-05-09T00:19:16.382Z,51.45
2024-05-09T00:21:47.278Z,51.42
2024-05-09T00:24:19.034Z,51.42
2024-05-09T00:26:49.469Z,51.55
2024-05-09T00:29:22.001Z,51.82
2024-05-09T00:31:52.633Z,51.88
2024-05-09T00:34:24.686Z,51.87
2024-05-09T00:36:55.467Z,51.69
2024-05-09T00:39:27.330Z,51.53
2024-05-09T00:41:57.748Z,51.43
2024-05-09T00:44:29.261Z,51.34
2024-05-09T00:46:59.953Z,51.31
2024-05-09T00:49:31.768Z,51.21
2024-05-09T00:52:02.421Z,51.23
2024-05-09T00:54:34.294Z,51.20
2024-05-09T00:57:05.063Z,51.17
2024-05-09T00:59:37.246Z,51.25
2024-05-09T01:02:07.730Z,51.12
2024-05-09T01:04:39.749Z,51.19
2024-05-09T01:07:11.112Z,51.13
2024-05-09T01:09:42.880Z,51.15
2024-05-09T01:12:13.914Z,51.21
2024-05-09T01:14:45.685Z,51.29
2024-05-09T01:17:16.219Z,51.31
2024-05-09T01:19:48.373Z,51.41
2024-05-09T01:22:18.905Z,51.44
2024-05-09T01:24:52.117Z,51.53
2024-05-09T01:27:22.727Z,51.62
2024-05-09T01:29:54.481Z,51.54
2024-05-09T01:32:25.028Z,51.55
2024-05-09T01:34:57.030Z,51.69
2024-05-09T01:37:27.608Z,51.73
2024-05-09T01:39:59.261Z,51.66
2024-05-09T01:42:30.000Z,51.80
2024-05-09T01:45:01.851Z,51.79
2024-05-09T01:47:32.406Z,51.83
2024-05-09T01:50:06.799Z,51.92
2024-05-09T01:52:40.610Z,52.05
2024-05-09T01:55:11.084Z,52.11
2024-05-09T01:57:42.895Z,52.28
2024-05-09T02:00:18.822Z,52.33
2024-05-09T02:02:59.465Z,52.44
2024-05-09T02:05:30.675Z,52.53
2024-05-09T02:08:02.500Z,52.61
2024-05-09T02:10:33.631Z,52.73
2024-05-09T02:13:07.762Z,52.74
2024-05-09T02:15:38.203Z,52.95
2024-05-09T02:18:10.375Z,52.87
2024-05-09T02:20:42.587Z,52.98
2024-05-09T02:23:15.157Z,53.09
2024-05-09T02:25:45.799Z,53.22
2024-05-09T02:28:17.611Z,53.19
2024-05-09T02:30:48.034Z,53.40
2024-05-09T02:33:20.058Z,53.75
2024-05-09T02:35:50.627Z,53.91
2024-05-09T02:38:22.210Z,54.11
2024-05-09T02:40:52.738Z,54.15
2024-05-09T02:43:24.671Z,54.21
2024-05-09T02:45:55.199Z,54.57
2024-05-09T02:48:27.011Z,54.81
2024-05-09T02:50:57.616Z,54.87
2024-05-09T02:53:29.498Z,54.89
2024-05-09T02:55:59.990Z,55.04
2024-05-09T02:58:31.632Z,55.14
2024-05-09T03:01:02.349Z,55.13
2024-05-09T03:03:34.778Z,55.45
2024-05-09T03:06:05.674Z,55.58
2024-05-09T03:08:37.738Z,55.67
2024-05-09T03:11:08.424Z,55.77
2024-05-09T03:13:41.550Z,55.99
2024-05-09T03:16:11.979Z,56.09
2024-05-09T03:18:44.044Z,56.16
2024-05-09T03:21:14.705Z,55.83
2024-05-09T03:23:46.442Z,55.96
2024-05-09T03:26:18.303Z,56.01
2024-05-09T03:28:50.164Z,56.10
2024-05-09T03:31:20.583Z,56.14
2024-05-09T03:33:52.433Z,56.32
2024-05-09T03:36:22.973Z,56.01
2024-05-09T03:38:54.735Z,55.59
2024-05-09T03:41:25.308Z,54.67
2024-05-09T03:43:56.970Z,53.26
2024-05-09T03:46:27.547Z,51.47
2024-05-09T03:48:59.373Z,49.73
2024-05-09T03:51:30.273Z,48.08
2024-05-09T03:54:02.104Z,46.51
2024-05-09T03:56:32.423Z,45.43
2024-05-09T03:59:04.440Z,45.46
2024-05-09T04:01:35.165Z,45.58
2024-05-09T04:04:09.014Z,45.74
2024-05-09T04:06:39.461Z,46.18
2024-05-09T04:09:11.216Z,46.74
2024-05-09T04:11:41.781Z,46.94
2024-05-09T04:14:13.703Z,47.12
2024-05-09T04:16:44.284Z,47.18
2024-05-09T04:19:16.204Z,46.98
2024-05-09T04:21:46.963Z,46.97
2024-05-09T04:24:18.595Z,46.91
2024-05-09T04:26:49.136Z,47.03
2024-05-09T04:29:21.253Z,46.94
2024-05-09T04:31:51.983Z,46.94
2024-05-09T04:34:23.763Z,46.92
2024-05-09T04:36:55.638Z,46.98
2024-05-09T04:39:27.775Z,46.70
2024-05-09T04:41:58.225Z,46.54
2024-05-09T04:44:29.725Z,46.39
2024-05-09T04:47:00.686Z,46.38
2024-05-09T04:49:32.684Z,46.17
2024-05-09T04:52:03.205Z,45.92
2024-05-09T04:54:36.583Z,45.69
2024-05-09T04:57:07.539Z,45.45
2024-05-09T04:59:39.525Z,45.58
2024-05-09T05:02:10.305Z,44.99
2024-05-09T05:04:42.147Z,44.43
2024-05-09T05:07:12.821Z,43.86
2024-05-09T05:09:44.591Z,43.23
2024-05-09T05:12:33.456Z,43.01
2024-05-09T05:15:05.718Z,42.81
2024-05-09T05:17:36.428Z,42.21
2024-05-09T05:20:12.730Z,41.30
2024-05-09T05:22:47.938Z,40.44
2024-05-09T05:25:18.375Z,37.81
2024-05-09T05:27:50.031Z,35.20
2024-05-09T05:30:25.282Z,32.92
2024-05-09T05:33:01.384Z,30.64
2024-05-09T05:35:32.114Z,28.32
2024-05-09T05:38:04.699Z,26.65
2024-05-09T05:40:38.322Z,25.53
2024-05-09T05:43:17.700Z,24.51
2024-05-09T05:45:49.332Z,23.90
2024-05-09T05:48:19.964Z,23.43
2024-05-09T05:50:51.928Z,23.20
2024-05-09T05:53:22.751Z,23.29
2024-05-09T05:55:54.558Z,23.41
2024-05-09T05:58:25.181Z,23.29
2024-05-09T06:00:56.932Z,23.29
2024-05-09T06:03:29.491Z,23.82
2024-05-09T06:06:02.888Z,23.81
2024-05-09T06:08:33.631Z,24.36
2024-05-09T06:11:05.433Z,24.60
2024-05-09T06:13:36.108Z,24.88
2024-05-09T06:16:07.964Z,25.36
2024-05-09T06:18:38.910Z,25.95
2024-05-09T06:21:10.792Z,26.30
2024-05-09T06:23:47.921Z,26.90
2024-05-09T06:26:20.081Z,26.98
2024-05-09T06:28:50.720Z,27.22
2024-05-09T06:31:22.399Z,27.57
2024-05-09T06:33:52.937Z,27.81
2024-05-09T06:36:24.905Z,28.01
2024-05-09T06:38:55.317Z,28.12
2024-05-09T06:41:27.013Z,28.55
2024-05-09T06:43:57.618Z,28.72
2024-05-09T06:46:29.663Z,28.80
2024-05-09T06:49:06.714Z,29.21
2024-05-09T06:51:39.012Z,29.65
2024-05-09T06:54:09.555Z,29.62
2024-05-09T06:56:41.168Z,29.70
2024-05-09T06:59:11.983Z,30.06
2024-05-09T07:01:43.798Z,30.31
2024-05-09T07:04:14.552Z,30.16
2024-05-09T07:06:46.594Z,30.43
2024-05-09T07:09:17.131Z,30.32
2024-05-09T07:11:49.004Z,30.65
2024-05-09T07:14:19.937Z,31.07
2024-05-09T07:16:51.862Z,31.22
2024-05-09T07:19:22.471Z,31.03
2024-05-09T07:21:54.281Z,31.27
2024-05-09T07:24:24.598Z,30.99
2024-05-09T07:26:56.672Z,31.18
2024-05-09T07:29:27.239Z,31.23
2024-05-09T07:31:59.085Z,31.16
2024-05-09T07:34:29.765Z,30.97
2024-05-09T07:37:02.265Z,31.20
2024-05-09T07:39:32.793Z,31.47
2024-05-09T07:42:05.181Z,31.62
2024-05-09T07:44:35.754Z,31.77
2024-05-09T07:48:14.596Z,31.97
2024-05-09T07:51:47.614Z,31.78
2024-05-09T07:53:35.380Z,31.35
2024-05-09T07:55:44.123Z,30.75
2024-05-09T07:58:14.832Z,31.02
2024-05-09T08:00:46.595Z,31.12
2024-05-09T08:03:17.248Z,31.05
2024-05-09T08:05:49.398Z,30.81
2024-05-09T08:08:20.253Z,30.69
2024-05-09T08:10:52.309Z,30.87
2024-05-09T08:13:23.147Z,30.75
2024-05-09T08:15:55.179Z,30.38
2024-05-09T08:18:25.654Z,30.43
2024-05-09T08:20:58.055Z,30.71
2024-05-09T08:23:28.992Z,30.93
2024-05-09T08:26:01.051Z,31.03
2024-05-09T08:28:31.512Z,31.20
2024-05-09T08:31:06.661Z,30.96
2024-05-09T08:33:51.294Z,31.02
2024-05-09T08:36:23.236Z,31.35
2024-05-09T08:38:53.864Z,31.94
2024-05-09T08:41:25.624Z,31.41
2024-05-09T08:43:56.145Z,31.10
2024-05-09T08:46:27.912Z,31.06
2024-05-09T08:48:58.638Z,31.18
2024-05-09T08:51:30.472Z,31.21
2024-05-09T08:54:01.033Z,31.18
2024-05-09T08:56:32.791Z,31.09
2024-05-09T08:59:03.625Z,31.19
2024-05-09T09:01:37.826Z,31.32
2024-05-09T09:04:11.024Z,31.33
2024-05-09T09:06:41.399Z,31.30
2024-05-09T09:09:13.422Z,30.80
2024-05-09T09:11:43.902Z,30.10
2024-05-09T09:14:15.612Z,29.67
2024-05-09T09:16:46.237Z,29.69
2024-05-09T09:19:18.657Z,29.88
2024-05-09T09:21:49.696Z,29.53
2024-05-09T09:24:21.403Z,29.57
2024-05-09T09:26:51.830Z,29.46
2024-05-09T09:29:23.685Z,29.08
2024-05-09T09:32:04.360Z,28.67
2024-05-09T09:34:36.738Z,28.64
2024-05-09T09:37:08.786Z,28.66
2024-05-09T09:39:42.058Z,28.38
2024-05-09T09:42:12.519Z,28.35
2024-05-09T09:44:47.798Z,28.41
2024-05-09T09:47:23.364Z,28.10
2024-05-09T09:49:53.958Z,27.90
2024-05-09T09:52:26.443Z,27.80
2024-05-09T09:54:57.311Z,28.03
2024-05-09T09:57:29.550Z,27.82
2024-05-09T10:00:00.181Z,27.78
2024-05-09T10:02:32.613Z,28.40
2024-05-09T10:05:03.478Z,28.09
2024-05-09T10:07:40.330Z,27.42
2024-05-09T10:10:16.144Z,27.40
2024-05-09T10:13:03.701Z,27.95
2024-05-09T10:15:54.499Z,27.96
2024-05-09T10:18:29.583Z,27.98
2024-05-09T10:21:04.458Z,27.48
2024-05-09T10:23:36.646Z,26.89
2024-05-09T10:26:09.529Z,26.83
2024-05-09T10:28:42.624Z,26.67
2024-05-09T10:31:15.778Z,26.88
2024-05-09T10:33:48.905Z,26.81
2024-05-09T10:36:22.083Z,27.16
2024-05-09T10:38:53.755Z,26.81
2024-05-09T10:41:25.598Z,26.88
2024-05-09T10:43:55.936Z,26.67
2024-05-09T10:46:27.709Z,26.13
2024-05-09T10:48:59.621Z,25.69
2024-05-09T10:51:32.818Z,25.95
2024-05-09T10:54:03.683Z,26.13
2024-05-09T10:56:35.435Z,26.34
2024-05-09T10:59:05.906Z,25.92
2024-05-09T11:01:37.762Z,25.89
2024-05-09T11:04:08.662Z,25.91
2024-05-09T11:06:40.420Z,26.41
2024-05-09T11:09:11.141Z,26.20
2024-05-09T11:11:43.022Z,26.12
2024-05-09T11:14:13.848Z,25.64
2024-05-09T11:16:45.300Z,25.46
2024-05-09T11:19:16.084Z,25.73
2024-05-09T11:21:51.921Z,25.70
2024-05-09T11:24:23.542Z,25.35
2024-05-09T11:26:53.961Z,25.19
2024-05-09T11:29:39.231Z,24.76
2024-05-09T11:32:12.003Z,25.90
2024-05-09T11:34:42.821Z,26.02
2024-05-09T11:37:15.045Z,25.87
2024-05-09T11:39:45.800Z,25.41
2024-05-09T11:42:17.702Z,25.38
2024-05-09T11:44:48.138Z,25.87
2024-05-09T11:47:21.695Z,25.50
2024-05-09T11:49:53.262Z,25.26
2024-05-09T11:52:25.193Z,25.13
2024-05-09T11:54:56.144Z,24.99
2024-05-09T11:57:29.511Z,24.74
2024-05-09T12:00:00.024Z,24.64
2024-05-09T12:02:32.058Z,25.47
2024-05-09T12:05:02.740Z,25.24
2024-05-09T12:07:34.684Z,25.13
2024-05-09T12:10:09.433Z,24.73
2024-05-09T12:12:45.691Z,25.20
2024-05-09T12:15:16.953Z,25.10
2024-05-09T12:17:50.924Z,25.20
2024-05-09T12:20:28.741Z,25.28
2024-05-09T12:23:09.926Z,25.60
2024-05-09T12:25:41.169Z,25.49
2024-05-09T12:28:12.977Z,24.76
2024-05-09T12:30:43.701Z,25.21
2024-05-09T12:33:15.925Z,25.62
2024-05-09T12:35:49.235Z,25.36
2024-05-09T12:38:22.596Z,25.43
2024-05-09T12:40:53.149Z,25.60
2024-05-09T12:43:25.203Z,25.79
2024-05-09T12:45:55.783Z,25.31
2024-05-09T12:48:27.849Z,25.14
2024-05-09T12:50:58.571Z,24.68
2024-05-09T12:53:30.272Z,24.95
2024-05-09T12:56:02.997Z,24.78
2024-05-09T12:58:36.451Z,24.94
2024-05-09T13:01:07.038Z,25.04
2024-05-09T13:03:39.023Z,25.76
2024-05-09T13:06:09.795Z,26.14
2024-05-09T13:08:41.748Z,26.15
2024-05-09T13:11:13.075Z,26.28
2024-05-09T13:13:44.842Z,26.29
2024-05-09T13:16:15.204Z,26.41
2024-05-09T13:18:47.123Z,26.73
2024-05-09T13:21:17.776Z,26.81
2024-05-09T13:23:49.520Z,26.87
2024-05-09T13:26:19.947Z,26.82
2024-05-09T13:28:51.490Z,26.52
2024-05-09T13:31:22.076Z,26.66
2024-05-09T13:33:53.990Z,26.70
2024-05-09T13:36:24.518Z,26.23
2024-05-09T13:38:56.653Z,26.16
2024-05-09T13:41:27.527Z,26.10
2024-05-09T13:43:59.379Z,26.01
2024-05-09T13:46:29.861Z,26.11
2024-05-09T13:49:03.200Z,25.94
2024-05-09T13:51:33.847Z,25.79
2024-05-09T13:54:05.585Z,26.54
2024-05-09T13:56:37.469Z,26.30
2024-05-09T13:59:09.412Z,26.35
2024-05-09T14:01:39.928Z,26.66
2024-05-09T14:04:12.159Z,26.21
2024-05-09T14:06:42.902Z,26.43
2024-05-09T14:09:14.703Z,26.56
2024-05-09T14:11:45.185Z,26.67
2024-05-09T14:14:17.202Z,27.04
2024-05-09T14:16:47.566Z,27.81
2024-05-09T14:19:19.606Z,27.88
2024-05-09T14:21:50.236Z,28.30
2024-05-09T14:24:21.980Z,28.70
2024-05-09T14:26:52.391Z,28.42
2024-05-09T14:29:24.463Z,28.19
2024-05-09T14:31:54.883Z,28.10
2024-05-09T14:34:27.192Z,28.08
2024-05-09T14:36:58.899Z,28.16
2024-05-09T14:39:30.536Z,28.11
2024-05-09T14:42:01.216Z,28.71
2024-05-09T14:44:33.080Z,28.48
2024-05-09T14:47:04.128Z,27.87
2024-05-09T14:49:36.308Z,28.04
2024-05-09T14:52:07.176Z,28.82
2024-05-09T14:54:39.172Z,28.75
2024-05-09T14:57:09.601Z,28.89
2024-05-09T14:59:41.358Z,28.98
2024-05-09T15:02:12.427Z,28.56
2024-05-09T15:04:44.522Z,28.42
2024-05-09T15:07:15.422Z,29.35
2024-05-09T15:09:47.488Z,29.08
2024-05-09T15:12:18.088Z,29.15
2024-05-09T15:14:49.857Z,29.24
2024-05-09T15:17:20.385Z,29.01
2024-05-09T15:19:52.294Z,29.02
2024-05-09T15:22:22.927Z,28.98
2024-05-09T15:24:54.908Z,29.05
2024-05-09T15:27:25.888Z,28.95
2024-05-09T15:29:57.733Z,28.51
2024-05-09T15:32:29.851Z,28.77
2024-05-09T15:35:01.757Z,28.84
2024-05-09T15:37:32.565Z,28.58
2024-05-09T15:40:07.450Z,28.51
2024-05-09T15:42:43.039Z,29.11
2024-05-09T15:45:14.006Z,29.30
2024-05-09T15:47:45.947Z,29.43
2024-05-09T15:50:20.632Z,29.18
2024-05-09T15:53:01.570Z,28.66
2024-05-09T15:55:34.346Z,28.37
2024-05-09T15:58:07.338Z,28.70
2024-05-09T16:00:41.641Z,28.99
2024-05-09T16:03:15.793Z,28.68
2024-05-09T16:05:47.928Z,28.68
2024-05-09T16:08:19.996Z,28.51
2024-05-09T16:10:51.532Z,29.28
2024-05-09T16:13:23.693Z,29.22
2024-05-09T16:15:54.417Z,28.97
2024-05-09T16:18:26.540Z,29.08
2024-05-09T16:21:00.543Z,28.94
2024-05-09T16:23:32.526Z,28.46
2024-05-09T16:26:03.027Z,28.66
2024-05-09T16:28:34.907Z,28.54
2024-05-09T16:31:05.940Z,28.71
2024-05-09T16:33:40.410Z,28.69
2024-05-09T16:36:13.977Z,28.53
2024-05-09T16:38:45.568Z,28.59
2024-05-09T16:41:17.452Z,28.50
2024-05-09T16:43:47.894Z,29.09
2024-05-09T16:46:19.917Z,29.00
2024-05-09T16:48:51.105Z,29.34
2024-05-09T16:51:23.045Z,29.74
2024-05-09T16:53:54.344Z,29.41
2024-05-09T16:56:27.417Z,28.94
2024-05-09T16:58:57.921Z,28.81
2024-05-09T17:01:31.077Z,29.29
2024-05-09T17:04:01.860Z,29.41
2024-05-09T17:06:33.854Z,28.95
2024-05-09T17:09:08.632Z,29.15
2024-05-09T17:11:43.846Z,28.88
2024-05-09T17:14:14.911Z,28.99
2024-05-09T17:16:46.593Z,28.92
2024-05-09T17:19:17.886Z,28.82
2024-05-09T17:21:49.704Z,29.08
2024-05-09T17:24:20.307Z,29.09
2024-05-09T17:26:53.288Z,29.08
2024-05-09T17:29:23.826Z,29.34
2024-05-09T17:31:55.787Z,29.53
2024-05-09T17:34:26.894Z,29.37
2024-05-09T17:37:00.433Z,29.21
2024-05-09T17:39:31.094Z,29.27
2024-05-09T17:42:03.423Z,29.27
2024-05-09T17:44:33.866Z,29.31
2024-05-09T17:47:06.258Z,29.49
2024-05-09T17:49:36.780Z,29.77
2024-05-09T17:52:08.793Z,29.85
2024-05-09T17:54:39.535Z,30.00
2024-05-09T17:57:11.408Z,30.09
2024-05-09T17:59:41.935Z,30.34
2024-05-09T18:02:13.814Z,30.62
2024-05-09T18:04:44.638Z,30.64
2024-05-09T18:07:16.571Z,30.68
2024-05-09T18:09:47.179Z,30.67
2024-05-09T18:12:19.210Z,30.85
2024-05-09T18:14:49.836Z,30.91
2024-05-09T18:17:23.565Z,31.30
2024-05-09T18:19:57.067Z,31.33
2024-05-09T18:22:28.299Z,31.54
2024-05-09T18:25:00.237Z,31.69
2024-05-09T18:27:30.938Z,31.84
2024-05-09T18:30:07.094Z,31.83
2024-05-09T18:32:39.696Z,31.78
2024-05-09T18:35:10.948Z,31.79
2024-05-09T18:37:43.318Z,31.97
2024-05-09T18:40:20.938Z,32.08
2024-05-09T18:43:00.895Z,32.21
2024-05-09T18:45:31.444Z,32.33
2024-05-09T18:48:05.051Z,32.28
2024-05-09T18:50:39.495Z,32.36
2024-05-09T18:53:14.090Z,32.32
2024-05-09T18:55:45.003Z,32.39
2024-05-09T18:58:17.838Z,32.41
2024-05-09T19:00:50.521Z,32.74
2024-05-09T19:03:24.691Z,33.13
2024-05-09T19:05:55.582Z,33.71
2024-05-09T19:08:28.658Z,34.62
2024-05-09T19:10:59.535Z,35.34
2024-05-09T19:13:32.009Z,36.05
2024-05-09T19:16:02.563Z,36.70
2024-05-09T19:18:34.630Z,37.11
2024-05-09T19:21:05.724Z,38.03
2024-05-09T19:23:38.556Z,38.47
2024-05-09T19:26:16.097Z,38.50
2024-05-09T19:28:46.933Z,38.48
2024-05-09T19:31:19.056Z,38.38
2024-05-09T19:33:49.797Z,38.21
2024-05-09T19:36:21.697Z,38.19
2024-05-09T19:38:52.326Z,38.25
2024-05-09T19:41:24.085Z,38.32
2024-05-09T19:43:54.824Z,38.45
2024-05-09T19:46:26.859Z,38.59
2024-05-09T19:48:58.509Z,38.73
2024-05-09T19:51:30.796Z,39.29
2024-05-09T19:54:01.446Z,39.50
2024-05-09T19:56:33.289Z,39.71
2024-05-09T19:59:04.361Z,39.90
2024-05-09T20:01:36.415Z,40.12
2024-05-09T20:04:07.385Z,40.42
2024-05-09T20:06:39.997Z,40.80
2024-05-09T20:09:11.069Z,41.09
2024-05-09T20:11:42.945Z,41.26
2024-05-09T20:14:13.571Z,41.44
2024-05-09T20:16:45.324Z,41.61
2024-05-09T20:19:15.982Z,41.91
2024-05-09T20:21:48.273Z,42.34
2024-05-09T20:24:18.840Z,43.00
2024-05-09T20:26:50.402Z,43.53
2024-05-09T20:29:21.649Z,43.78
2024-05-09T20:31:53.646Z,43.85
2024-05-09T20:34:24.238Z,44.03
2024-05-09T20:36:56.362Z,43.97
2024-05-09T20:39:27.229Z,44.15
2024-05-09T20:41:59.094Z,44.17
2024-05-09T20:44:29.540Z,44.32
2024-05-09T20:47:01.394Z,44.45
2024-05-09T20:49:32.183Z,44.43
2024-05-09T20:52:04.611Z,44.61
2024-05-09T20:54:35.130Z,44.80
2024-05-09T20:57:07.384Z,44.99
2024-05-09T20:59:39.141Z,45.10
2024-05-09T21:02:11.182Z,45.52
2024-05-09T21:04:42.080Z,45.80
2024-05-09T21:07:14.228Z,46.35
2024-05-09T21:09:44.792Z,46.63
2024-05-09T21:12:19.145Z,47.07
2024-05-09T21:14:51.949Z,47.35
2024-05-09T21:17:22.843Z,47.51
2024-05-09T21:19:55.032Z,47.52
2024-05-09T21:22:25.608Z,47.68
2024-05-09T21:24:57.357Z,47.88
2024-05-09T21:27:27.974Z,48.38
2024-05-09T21:29:59.853Z,48.83
2024-05-09T21:32:30.688Z,49.53
2024-05-09T21:35:02.730Z,50.17
2024-05-09T21:37:33.351Z,50.12
2024-05-09T21:40:11.279Z,50.10
2024-05-09T21:42:45.813Z,50.39
2024-05-09T21:45:16.209Z,50.80
2024-05-09T21:47:48.117Z,51.03
2024-05-09T21:50:23.467Z,51.57
2024-05-09T21:53:03.879Z,51.88
2024-05-09T21:55:34.554Z,52.19
2024-05-09T21:58:06.905Z,52.50
2024-05-09T22:00:39.590Z,52.58
2024-05-09T22:03:12.394Z,52.25
2024-05-09T22:05:44.863Z,52.07
2024-05-09T22:08:17.290Z,52.04
2024-05-09T22:10:47.974Z,52.38
2024-05-09T22:13:20.473Z,52.70
2024-05-09T22:15:51.177Z,52.83
2024-05-09T22:18:23.229Z,52.85
2024-05-09T22:20:55.163Z,53.08
2024-05-09T22:23:26.908Z,52.94
2024-05-09T22:25:57.328Z,53.11
2024-05-09T22:28:29.020Z,53.03
2024-05-09T22:30:59.733Z,53.29
2024-05-09T22:33:31.654Z,53.27
2024-05-09T22:36:02.219Z,53.54
2024-05-09T22:38:33.867Z,53.67
2024-05-09T22:41:07.861Z,53.70
2024-05-09T22:43:39.958Z,53.66
2024-05-09T22:46:10.496Z,53.47
2024-05-09T22:48:42.493Z,52.94
2024-05-09T22:51:13.056Z,52.71
2024-05-09T22:53:44.820Z,52.90
2024-05-09T22:56:15.239Z,53.16
2024-05-09T22:58:47.011Z,53.15
2024-05-09T23:01:17.565Z,53.33
2024-05-09T23:03:49.799Z,53.48
2024-05-09T23:06:20.323Z,53.62
2024-05-09T23:08:52.083Z,53.57
2024-05-09T23:11:22.565Z,53.58
2024-05-09T23:13:54.430Z,53.77
2024-05-09T23:16:24.907Z,53.98
2024-05-09T23:18:56.948Z,54.21
2024-05-09T23:21:27.385Z,54.32
2024-05-09T23:23:59.452Z,54.48
2024-05-09T23:26:29.779Z,54.61
2024-05-09T23:29:02.232Z,54.67
2024-05-09T23:31:32.734Z,54.75
2024-05-09T23:34:04.837Z,54.76
2024-05-09T23:36:35.485Z,54.77
2024-05-09T23:39:07.657Z,54.56
2024-05-09T23:41:37.968Z,54.51
2024-05-09T23:44:09.844Z,54.35
2024-05-09T23:46:40.268Z,54.27
2024-05-09T23:49:12.449Z,54.30
2024-05-09T23:51:42.829Z,54.57
2024-05-09T23:54:14.601Z,54.65
2024-05-09T23:56:45.128Z,54.66
2024-05-09T23:59:16.685Z,54.78
